Time,TemperatureF,DewpointF,PressureIn,WindDirection,WindDirectionDegrees,WindSpeedMPH,WindSpeedGustMPH,Humidity,HourlyPrecipIn,Conditions,Clouds,dailyrainin,SoftwareType,DateUTC
2013-05-22 00:00:00,69.5,68.0,30.00,SE,132,4.0,4.0,95,0.00,,,0.00,weatherlink.com 1.10,2013-05-22 04:00:00,
2013-05-22 00:15:00,69.7,68.0,30.00,North,5,0.0,3.0,95,0.00,,,0.00,weatherlink.com 1.10,2013-05-22 04:15:00,
2013-05-22 00:30:00,69.9,69.0,30.00,NW,326,2.0,3.0,95,0.00,,,0.00,weatherlink.com 1.10,2013-05-22 04:30:00,
2013-05-22 00:45:00,69.9,69.0,30.00,SSE,158,1.0,5.0,95,0.00,,,0.00,weatherlink.com 1.10,2013-05-22 04:45:00,
2013-05-22 01:00:00,69.9,69.0,30.00,SSE,168,1.0,2.0,95,0.00,,,0.00,weatherlink.com 1.10,2013-05-22 05:00:00,
2013-05-22 01:15:00,70.0,69.0,30.00,South,170,0.0,5.0,95,0.00,,,0.00,weatherlink.com 1.10,2013-05-22 05:15:00,
2013-05-22 01:30:00,70.2,69.0,30.00,SSE,163,3.0,4.0,95,0.00,,,0.00,weatherlink.com 1.10,2013-05-22 05:30:00,
2013-05-22 01:45:00,70.3,69.0,29.99,West,278,0.0,3.0,95,0.00,,,0.00,weatherlink.com 1.10,2013-05-22 05:45:00,
2013-05-22 02:00:00,70.6,69.0,29.98,SE,125,3.0,6.0,94,0.00,,,0.00,weatherlink.com 1.10,2013-05-22 06:00:00,
2013-05-22 02:15:00,70.6,69.0,29.98,South,179,1.0,5.0,94,0.00,,,0.00,weatherlink.com 1.10,2013-05-22 06:15:00,
2013-05-22 02:30:00,70.6,69.0,29.98,North,358,2.0,5.0,93,0.00,,,0.00,weatherlink.com 1.10,2013-05-22 06:30:00,
2013-05-22 02:45:00,70.4,68.0,29.98,SE,127,0.0,5.0,93,0.00,,,0.00,weatherlink.com 1.10,2013-05-22 06:45:00,
2013-05-22 03:00:00,70.4,68.0,29.98,NNW,330,2.0,5.0,93,0.00,,,0.00,weatherlink.com 1.10,2013-05-22 07:00:00,
2013-05-22 03:15:00,70.4,68.0,29.98,SSW,201,2.0,2.0,93,0.00,,,0.00,weatherlink.com 1.10,2013-05-22 07:15:00,
2013-05-22 03:30:00,70.5,68.0,29.98,SW,215,0.0,4.0,93,0.00,,,0.00,weatherlink.com 1.10,2013-05-22 07:30:00,
2013-05-22 03:46:00,70.5,68.0,29.98,SE,134,0.0,2.0,93,0.00,,,0.00,weatherlink.com 1.10,2013-05-22 07:46:00,
2013-05-22 04:01:00,70.5,68.0,29.97,SSE,151,0.0,5.0,93,0.00,,,0.00,weatherlink.com 1.10,2013-05-22 08:01:00,
2013-05-22 04:16:00,70.5,68.0,29.97,SSE,167,1.0,4.0,93,0.00,,,0.00,weatherlink.com 1.10,2013-05-22 08:16:00,
2013-05-22 04:31:00,70.4,68.0,29.97,SE,137,0.0,5.0,93,0.00,,,0.00,weatherlink.com 1.10,2013-05-22 08:31:00,
2013-05-22 04:46:00,70.3,68.0,29.96,SW,236,0.0,3.0,93,0.00,,,0.00,weatherlink.com 1.10,2013-05-22 08:46:00,
2013-05-22 05:01:00,70.1,68.0,29.96,SE,134,0.0,7.0,93,0.00,,,0.00,weatherlink.com 1.10,2013-05-22 09:01:00,
2013-05-22 05:16:00,69.8,68.0,29.96,SSW,195,0.0,7.0,93,0.00,,,0.00,weatherlink.com 1.10,2013-05-22 09:16:00,
2013-05-22 05:31:00,69.5,68.0,29.96,SSE,149,3.0,5.0,93,0.00,,,0.00,weatherlink.com 1.10,2013-05-22 09:31:00,
2013-05-22 05:46:00,69.4,67.0,29.96,ESE,116,1.0,7.0,93,0.00,,,0.00,weatherlink.com 1.10,2013-05-22 09:46:00,
2013-05-22 06:01:00,69.3,67.0,29.97,SE,132,1.0,6.0,93,0.00,,,0.00,weatherlink.com 1.10,2013-05-22 10:01:00,
2013-05-22 06:16:00,69.2,67.0,29.98,SSE,153,3.0,4.0,93,0.00,,,0.00,weatherlink.com 1.10,2013-05-22 10:16:00,
2013-05-22 06:31:00,69.4,67.0,29.98,SSE,150,1.0,3.0,93,0.00,,,0.00,weatherlink.com 1.10,2013-05-22 10:31:00,
2013-05-22 06:46:00,69.4,67.0,29.99,WSW,245,0.0,6.0,93,0.00,,,0.00,weatherlink.com 1.10,2013-05-22 10:46:00,
2013-05-22 07:01:00,69.5,67.0,29.99,West,263,2.0,8.0,92,0.00,,,0.00,weatherlink.com 1.10,2013-05-22 11:01:00,
2013-05-22 07:16:00,69.6,67.0,29.99,SSE,167,0.0,8.0,92,0.00,,,0.00,weatherlink.com 1.10,2013-05-22 11:16:00,
2013-05-22 07:31:00,69.8,67.0,30.00,SE,139,2.0,4.0,92,0.00,,,0.00,weatherlink.com 1.10,2013-05-22 11:31:00,
2013-05-22 07:46:00,70.1,67.0,30.00,ESE,106,1.0,5.0,91,0.00,,,0.00,weatherlink.com 1.10,2013-05-22 11:46:00,
2013-05-22 08:01:00,70.5,68.0,30.00,SSE,166,1.0,8.0,90,0.00,,,0.00,weatherlink.com 1.10,2013-05-22 12:01:00,
2013-05-22 08:16:00,71.8,68.0,30.00,ENE,65,2.0,6.0,88,0.00,,,0.00,weatherlink.com 1.10,2013-05-22 12:16:00,
2013-05-22 08:31:00,72.4,68.0,30.01,SSE,165,1.0,5.0,86,0.00,,,0.00,weatherlink.com 1.10,2013-05-22 12:31:00,
2013-05-22 08:46:00,72.9,69.0,30.01,NNE,20,1.0,5.0,86,0.00,,,0.00,weatherlink.com 1.10,2013-05-22 12:46:00,
2013-05-22 09:01:00,73.1,68.0,30.01,West,263,1.0,9.0,85,0.00,,,0.00,weatherlink.com 1.10,2013-05-22 13:01:00,
2013-05-22 09:16:00,74.0,69.0,30.01,ESE,114,0.0,5.0,83,0.00,,,0.00,weatherlink.com 1.10,2013-05-22 13:16:00,
2013-05-22 09:31:00,75.2,69.0,30.02,East,80,0.0,5.0,82,0.00,,,0.00,weatherlink.com 1.10,2013-05-22 13:31:00,
2013-05-22 09:46:00,74.3,69.0,30.02,NW,323,2.0,3.0,82,0.00,,,0.00,weatherlink.com 1.10,2013-05-22 13:46:00,
2013-05-22 10:01:00,75.9,69.0,30.02,SSE,165,4.0,6.0,80,0.00,,,0.00,weatherlink.com 1.10,2013-05-22 14:01:00,
2013-05-22 10:16:00,78.2,69.0,30.01,SE,131,1.0,3.0,74,0.00,,,0.00,weatherlink.com 1.10,2013-05-22 14:16:00,
2013-05-22 10:31:00,78.6,70.0,30.01,South,176,7.0,8.0,74,0.00,,,0.00,weatherlink.com 1.10,2013-05-22 14:31:00,
2013-05-22 10:46:00,78.6,70.0,30.02,North,354,1.0,6.0,74,0.00,,,0.00,weatherlink.com 1.10,2013-05-22 14:46:00,
2013-05-22 11:01:00,78.2,69.0,30.02,ENE,60,0.0,9.0,74,0.00,,,0.00,weatherlink.com 1.10,2013-05-22 15:01:00,
2013-05-22 11:16:00,78.0,69.0,30.02,SW,235,0.0,9.0,73,0.00,,,0.00,weatherlink.com 1.10,2013-05-22 15:16:00,
2013-05-22 11:31:00,78.5,69.0,30.02,SE,142,1.0,4.0,73,0.00,,,0.00,weatherlink.com 1.10,2013-05-22 15:31:00,
2013-05-22 11:46:00,78.8,69.0,30.02,South,173,1.0,3.0,73,0.00,,,0.00,weatherlink.com 1.10,2013-05-22 15:46:00,
2013-05-22 12:01:00,79.8,70.0,30.02,WNW,300,2.0,9.0,71,0.00,,,0.00,weatherlink.com 1.10,2013-05-22 16:01:00,
2013-05-22 12:16:00,80.3,70.0,30.01,SE,139,4.0,4.0,70,0.00,,,0.00,weatherlink.com 1.10,2013-05-22 16:16:00,
2013-05-22 12:31:00,79.9,70.0,30.01,NNE,27,1.0,3.0,72,0.00,,,0.00,weatherlink.com 1.10,2013-05-22 16:31:00,
2013-05-22 12:46:00,80.9,70.0,30.00,North,352,2.0,5.0,69,0.00,,,0.00,weatherlink.com 1.10,2013-05-22 16:46:00,
2013-05-22 13:02:00,81.6,70.0,30.00,South,169,3.0,6.0,68,0.00,,,0.00,weatherlink.com 1.10,2013-05-22 17:02:00,
2013-05-22 13:17:00,83.6,71.0,29.99,SSE,163,1.0,3.0,66,0.00,,,0.00,weatherlink.com 1.10,2013-05-22 17:17:00,
2013-05-22 13:32:00,84.3,70.0,29.98,South,188,0.0,6.0,63,0.00,,,0.00,weatherlink.com 1.10,2013-05-22 17:32:00,
2013-05-22 13:47:00,83.7,71.0,29.98,South,172,2.0,8.0,66,0.00,,,0.00,weatherlink.com 1.10,2013-05-22 17:47:00,
2013-05-22 14:02:00,83.1,69.0,29.97,ESE,112,0.0,4.0,63,0.00,,,0.00,weatherlink.com 1.10,2013-05-22 18:02:00,
2013-05-22 14:17:00,83.8,70.0,29.96,SSW,207,0.0,7.0,64,0.00,,,0.00,weatherlink.com 1.10,2013-05-22 18:17:00,
2013-05-22 14:47:00,83.6,70.0,29.95,ESE,115,2.0,4.0,64,0.00,,,0.00,weatherlink.com 1.10,2013-05-22 18:47:00,
2013-05-22 15:02:00,84.0,71.0,29.94,SSE,148,0.0,5.0,65,0.00,,,0.00,weatherlink.com 1.10,2013-05-22 19:02:00,
2013-05-22 15:17:00,85.1,70.0,29.95,SSE,156,2.0,8.0,61,0.00,,,0.00,weatherlink.com 1.10,2013-05-22 19:17:00,
2013-05-22 15:32:00,84.8,69.0,29.95,South,179,1.0,8.0,60,0.00,,,0.00,weatherlink.com 1.10,2013-05-22 19:32:00,
2013-05-22 15:47:00,84.9,70.0,29.94,SW,222,0.0,8.0,62,0.00,,,0.00,weatherlink.com 1.10,2013-05-22 19:47:00,
2013-05-22 16:02:00,84.0,71.0,29.94,SSE,148,7.0,7.0,64,0.00,,,0.00,weatherlink.com 1.10,2013-05-22 20:02:00,
2013-05-22 16:17:00,83.5,70.0,29.93,NNW,328,1.0,5.0,64,0.00,,,0.00,weatherlink.com 1.10,2013-05-22 20:17:00,
2013-05-22 16:32:00,82.8,70.0,29.93,SSE,149,4.0,5.0,65,0.00,,,0.00,weatherlink.com 1.10,2013-05-22 20:32:00,
2013-05-22 16:47:00,82.6,70.0,29.92,WNW,298,0.0,5.0,65,0.00,,,0.00,weatherlink.com 1.10,2013-05-22 20:47:00,
2013-05-22 17:02:00,82.4,70.0,29.91,South,187,1.0,3.0,67,0.00,,,0.00,weatherlink.com 1.10,2013-05-22 21:02:00,
2013-05-22 17:17:00,82.2,68.0,29.91,SW,236,0.0,6.0,63,0.00,,,0.00,weatherlink.com 1.10,2013-05-22 21:17:00,
2013-05-22 17:32:00,82.6,67.0,29.91,SSE,163,8.0,11.0,59,0.00,,,0.00,weatherlink.com 1.10,2013-05-22 21:32:00,
2013-05-22 17:47:00,82.6,68.0,29.90,SSE,158,4.0,9.0,61,0.00,,,0.00,weatherlink.com 1.10,2013-05-22 21:47:00,
2013-05-22 18:02:00,82.0,68.0,29.91,WSW,239,4.0,9.0,63,0.00,,,0.00,weatherlink.com 1.10,2013-05-22 22:02:00,
2013-05-22 18:17:00,81.2,69.0,29.92,South,181,6.0,15.0,66,0.00,,,0.00,weatherlink.com 1.10,2013-05-22 22:17:00,
2013-05-22 18:32:00,75.8,70.0,29.92,SSE,150,0.0,5.0,82,0.02,,,0.02,weatherlink.com 1.10,2013-05-22 22:32:00,
2013-05-22 18:47:00,74.2,70.0,29.92,SSE,149,0.0,0.0,86,0.02,,,0.02,weatherlink.com 1.10,2013-05-22 22:47:00,
2013-05-22 19:02:00,73.4,70.0,29.92,SSE,150,0.0,0.0,89,0.02,,,0.02,weatherlink.com 1.10,2013-05-22 23:02:00,
2013-05-22 19:17:00,72.9,70.0,29.91,SSE,149,0.0,0.0,91,0.02,,,0.02,weatherlink.com 1.10,2013-05-22 23:17:00,
2013-05-22 19:32:00,72.9,70.0,29.91,SE,141,0.0,2.0,91,0.00,,,0.02,weatherlink.com 1.10,2013-05-22 23:32:00,
2013-05-22 19:47:00,72.9,70.0,29.92,South,172,0.0,0.0,91,0.00,,,0.02,weatherlink.com 1.10,2013-05-22 23:47:00,
2013-05-22 20:02:00,72.5,70.0,29.92,SSE,161,0.0,1.0,91,0.00,,,0.02,weatherlink.com 1.10,2013-05-23 00:02:00,
2013-05-22 20:17:00,72.4,70.0,29.93,SE,130,0.0,1.0,91,0.00,,,0.02,weatherlink.com 1.10,2013-05-23 00:17:00,
2013-05-22 20:32:00,72.1,69.0,29.94,SSE,167,0.0,2.0,91,0.00,,,0.02,weatherlink.com 1.10,2013-05-23 00:32:00,
2013-05-22 20:47:00,72.5,69.0,29.94,SE,144,0.0,2.0,88,0.00,,,0.02,weatherlink.com 1.10,2013-05-23 00:47:00,
2013-05-22 21:02:00,72.5,68.0,29.94,SSE,167,0.0,3.0,86,0.00,,,0.02,weatherlink.com 1.10,2013-05-23 01:02:00,
2013-05-22 21:17:00,72.3,68.0,29.95,SE,144,0.0,3.0,85,0.00,,,0.02,weatherlink.com 1.10,2013-05-23 01:17:00,
2013-05-22 21:32:00,71.9,68.0,29.95,SSE,158,0.0,3.0,87,0.00,,,0.02,weatherlink.com 1.10,2013-05-23 01:32:00,
2013-05-22 21:47:00,71.2,68.0,29.95,SSE,150,0.0,1.0,88,0.00,,,0.02,weatherlink.com 1.10,2013-05-23 01:47:00,
2013-05-22 22:02:00,70.7,67.0,29.96,SSE,150,0.0,1.0,89,0.00,,,0.02,weatherlink.com 1.10,2013-05-23 02:02:00,
2013-05-22 22:17:00,70.4,67.0,29.96,SSE,149,0.0,1.0,90,0.00,,,0.02,weatherlink.com 1.10,2013-05-23 02:17:00,
2013-05-22 22:32:00,69.8,67.0,29.96,SSE,150,0.0,0.0,90,0.00,,,0.02,weatherlink.com 1.10,2013-05-23 02:32:00,
2013-05-22 22:47:00,69.7,67.0,29.96,SSE,149,0.0,1.0,92,0.00,,,0.02,weatherlink.com 1.10,2013-05-23 02:47:00,
2013-05-22 23:02:00,69.9,68.0,29.96,East,100,0.0,2.0,93,0.00,,,0.02,weatherlink.com 1.10,2013-05-23 03:02:00,
2013-05-22 23:17:00,70.5,68.0,29.96,ESE,120,0.0,7.0,92,0.00,,,0.02,weatherlink.com 1.10,2013-05-23 03:17:00,
2013-05-22 23:32:00,70.9,68.0,29.96,SSE,161,0.0,4.0,91,0.00,,,0.02,weatherlink.com 1.10,2013-05-23 03:32:00,
2013-05-22 23:47:00,71.1,68.0,29.95,SW,214,1.0,5.0,91,0.00,,,0.02,weatherlink.com 1.10,2013-05-23 03:47:00,